createdAt,value
2023-04-30T00:00:47.224Z,0.00
2023-04-30T00:01:47.553Z,0.00
2023-04-30T00:02:47.878Z,0.00
2023-04-30T00:03:48.187Z,0.00
2023-04-30T00:04:48.378Z,0.00
2023-04-30T00:05:48.695Z,0.00
2023-04-30T00:06:49.030Z,0.00
2023-04-30T00:07:49.357Z,0.00
2023-04-30T00:08:49.685Z,0.00
2023-04-30T00:09:50.000Z,0.00
2023-04-30T00:10:50.330Z,0.00
2023-04-30T00:11:50.652Z,0.00
2023-04-30T00:12:50.971Z,0.00
2023-04-30T00:13:51.256Z,0.00
2023-04-30T00:14:51.566Z,0.00
2023-04-30T00:15:51.859Z,0.00
2023-04-30T00:16:52.200Z,0.00
2023-04-30T00:17:52.494Z,0.00
2023-04-30T00:18:52.772Z,0.00
2023-04-30T00:19:53.305Z,0.00
2023-04-30T00:20:53.412Z,0.00
2023-04-30T00:21:53.698Z,0.00
2023-04-30T00:22:54.045Z,0.00
2023-04-30T00:23:54.323Z,0.00
2023-04-30T00:24:54.582Z,0.00
2023-04-30T00:25:54.928Z,0.00
2023-04-30T00:26:55.209Z,0.00
2023-04-30T00:28:02.526Z,0.00
2023-04-30T00:28:55.772Z,0.00
2023-04-30T00:29:56.281Z,0.00
2023-04-30T00:30:58.039Z,0.00
2023-04-30T00:31:56.649Z,0.00
2023-04-30T00:32:57.042Z,0.00
2023-04-30T00:33:57.287Z,0.00
2023-04-30T00:34:57.605Z,0.00
2023-04-30T00:35:57.863Z,0.00
2023-04-30T00:36:58.181Z,0.00
2023-04-30T00:37:58.508Z,0.00
2023-04-30T00:38:58.820Z,0.00
2023-04-30T00:39:59.117Z,0.00
2023-04-30T00:40:59.409Z,0.00
2023-04-30T00:41:59.709Z,0.00
2023-04-30T00:43:00.022Z,0.00
2023-04-30T00:44:00.339Z,0.00
2023-04-30T00:45:00.677Z,0.00
2023-04-30T00:46:00.977Z,0.00
2023-04-30T00:47:01.223Z,0.00
2023-04-30T00:48:01.549Z,0.00
2023-04-30T00:49:01.831Z,0.00
2023-04-30T00:50:02.176Z,0.00
2023-04-30T00:51:02.386Z,0.00
2023-04-30T00:52:02.649Z,0.00
2023-04-30T00:53:02.912Z,0.00
2023-04-30T00:54:03.240Z,0.00
2023-04-30T00:55:03.576Z,0.00
2023-04-30T00:56:03.860Z,0.00
2023-04-30T00:57:04.186Z,0.00
2023-04-30T00:58:04.454Z,0.00
2023-04-30T00:59:04.779Z,0.00
2023-04-30T01:00:05.158Z,0.00
2023-04-30T01:01:05.353Z,0.00
2023-04-30T01:02:05.659Z,0.00
2023-04-30T01:03:06.046Z,0.00
2023-04-30T01:04:06.225Z,0.00
2023-04-30T01:05:06.522Z,0.00
2023-04-30T01:06:06.873Z,0.00
2023-04-30T01:07:07.130Z,0.00
2023-04-30T01:08:07.396Z,0.00
2023-04-30T01:09:07.674Z,0.00
2023-04-30T01:10:08.001Z,0.00
2023-04-30T01:11:08.291Z,0.00
2023-04-30T01:12:08.583Z,0.00
2023-04-30T01:13:08.878Z,0.00
2023-04-30T01:14:09.143Z,0.00
2023-04-30T01:15:09.460Z,0.00
2023-04-30T01:16:09.815Z,0.00
2023-04-30T01:17:10.071Z,0.00
2023-04-30T01:18:10.454Z,0.00
2023-04-30T01:19:10.666Z,0.00
2023-04-30T01:20:10.955Z,0.00
2023-04-30T01:21:11.251Z,0.00
2023-04-30T01:22:11.539Z,0.00
2023-04-30T01:23:11.834Z,0.00
2023-04-30T01:24:12.100Z,0.00
2023-04-30T01:25:12.417Z,0.00
2023-04-30T01:26:12.710Z,0.00
2023-04-30T01:27:13.046Z,0.00
2023-04-30T01:28:13.328Z,0.00
2023-04-30T01:29:13.637Z,0.00
2023-04-30T01:30:13.973Z,0.00
2023-04-30T01:31:14.292Z,0.00
2023-04-30T01:32:14.569Z,0.00
2023-04-30T01:33:14.850Z,0.00
2023-04-30T01:34:15.146Z,0.00
2023-04-30T01:35:15.479Z,0.00
2023-04-30T01:36:15.738Z,0.00
2023-04-30T01:37:16.048Z,0.00
2023-04-30T01:38:16.323Z,0.00
2023-04-30T01:39:16.640Z,0.00
2023-04-30T01:40:16.947Z,0.00
2023-04-30T01:41:17.245Z,0.00
2023-04-30T01:42:17.549Z,0.00
2023-04-30T01:43:17.874Z,0.00
2023-04-30T01:44:18.176Z,0.00
2023-04-30T01:45:18.491Z,0.00
2023-04-30T01:46:18.865Z,0.00
2023-04-30T01:47:19.125Z,0.00
2023-04-30T01:48:19.431Z,0.00
2023-04-30T01:49:19.727Z,0.00
2023-04-30T01:50:20.031Z,0.00
2023-04-30T01:51:20.297Z,0.00
2023-04-30T01:52:20.579Z,0.00
2023-04-30T01:53:20.918Z,0.00
2023-04-30T01:54:21.205Z,0.00
2023-04-30T01:55:21.520Z,0.00
2023-04-30T01:56:21.785Z,0.00
2023-04-30T01:57:22.068Z,0.00
2023-04-30T01:58:22.345Z,0.00
2023-04-30T01:59:22.616Z,0.00
2023-04-30T02:00:22.931Z,0.00
2023-04-30T02:01:23.237Z,0.00
2023-04-30T02:02:23.629Z,0.00
2023-04-30T02:03:23.899Z,0.00
2023-04-30T02:04:24.034Z,0.00
2023-04-30T02:05:24.317Z,0.00
2023-04-30T02:06:24.623Z,0.00
2023-04-30T02:07:24.894Z,0.00
2023-04-30T02:08:25.203Z,0.00
2023-04-30T02:09:25.465Z,0.00
2023-04-30T02:10:25.795Z,0.00
2023-04-30T02:11:26.077Z,0.00
2023-04-30T02:12:26.355Z,0.00
2023-04-30T02:13:26.665Z,0.00
2023-04-30T02:14:26.973Z,0.00
2023-04-30T02:15:27.310Z,0.00
2023-04-30T02:16:27.623Z,0.00
2023-04-30T02:17:27.919Z,0.00
2023-04-30T02:18:28.216Z,0.00
2023-04-30T02:19:28.539Z,0.00
2023-04-30T02:20:28.860Z,0.00
2023-04-30T02:21:29.178Z,0.00
2023-04-30T02:22:29.476Z,0.00
2023-04-30T02:23:29.772Z,0.00
2023-04-30T02:24:30.166Z,0.00
2023-04-30T02:25:30.328Z,0.00
2023-04-30T02:26:30.657Z,0.00
2023-04-30T02:27:30.943Z,0.00
2023-04-30T02:28:31.286Z,0.00
2023-04-30T02:29:31.599Z,0.00
2023-04-30T02:30:31.912Z,0.00
2023-04-30T02:31:32.243Z,0.00
2023-04-30T02:32:32.541Z,0.00
2023-04-30T02:33:32.816Z,0.00
2023-04-30T02:34:33.132Z,0.00
2023-04-30T02:35:33.439Z,0.00
2023-04-30T02:36:33.778Z,0.00
2023-04-30T02:37:33.978Z,0.00
2023-04-30T02:38:34.270Z,0.00
2023-04-30T02:39:34.590Z,0.00
2023-04-30T02:40:34.898Z,0.00
2023-04-30T02:41:35.214Z,0.00
2023-04-30T02:42:35.492Z,0.00
2023-04-30T02:43:35.764Z,0.00
2023-04-30T02:44:36.048Z,0.00
2023-04-30T02:45:36.357Z,0.00
2023-04-30T02:46:36.637Z,0.00
2023-04-30T02:47:36.950Z,0.00
2023-04-30T02:48:37.266Z,0.00
2023-04-30T02:49:37.540Z,0.00
2023-04-30T02:50:37.814Z,0.00
2023-04-30T02:51:38.132Z,0.00
2023-04-30T02:52:38.399Z,0.00
2023-04-30T02:53:38.687Z,0.00
2023-04-30T02:54:38.988Z,0.00
2023-04-30T02:55:39.297Z,0.00
2023-04-30T02:56:39.573Z,0.00
2023-04-30T02:57:39.878Z,0.00
2023-04-30T02:58:40.182Z,0.00
2023-04-30T02:59:40.485Z,0.00
2023-04-30T03:00:40.776Z,0.00
2023-04-30T03:01:41.120Z,0.00
2023-04-30T03:02:41.553Z,0.00
2023-04-30T03:03:41.747Z,0.00
2023-04-30T03:04:42.028Z,0.00
2023-04-30T03:05:42.329Z,0.00
2023-04-30T03:06:42.654Z,0.00
2023-04-30T03:07:42.898Z,0.00
2023-04-30T03:08:43.179Z,0.00
2023-04-30T03:09:43.479Z,0.00
2023-04-30T03:10:43.782Z,0.00
2023-04-30T03:11:44.090Z,0.00
2023-04-30T03:12:44.377Z,0.00
2023-04-30T03:13:44.642Z,0.00
2023-04-30T03:14:44.957Z,0.00
2023-04-30T03:15:45.216Z,0.00
2023-04-30T03:16:45.586Z,0.00
2023-04-30T03:17:46.410Z,0.00
2023-04-30T03:18:46.167Z,0.00
2023-04-30T03:19:46.501Z,0.00
2023-04-30T03:20:46.830Z,0.00
2023-04-30T03:21:47.126Z,0.00
2023-04-30T03:22:47.401Z,0.00
2023-04-30T03:23:47.724Z,0.00
2023-04-30T03:24:48.039Z,0.00
2023-04-30T03:25:48.332Z,0.00
2023-04-30T03:26:48.651Z,0.00
2023-04-30T03:27:48.949Z,0.00
2023-04-30T03:28:49.271Z,0.00
2023-04-30T03:29:49.632Z,0.00
2023-04-30T03:30:49.928Z,0.00
2023-04-30T03:31:50.262Z,0.00
2023-04-30T03:32:50.625Z,0.00
2023-04-30T03:33:50.896Z,0.00
2023-04-30T03:34:51.163Z,0.00
2023-04-30T03:35:51.470Z,0.00
2023-04-30T03:36:51.773Z,0.00
2023-04-30T03:37:52.108Z,0.00
2023-04-30T03:38:52.399Z,0.00
2023-04-30T03:39:52.930Z,0.00
2023-04-30T03:40:53.042Z,0.00
2023-04-30T03:41:53.321Z,0.00
2023-04-30T03:42:53.625Z,0.00
2023-04-30T03:43:53.952Z,0.00
2023-04-30T03:44:54.290Z,0.00
2023-04-30T03:45:54.629Z,0.00
2023-04-30T03:46:54.897Z,0.00
2023-04-30T03:47:55.318Z,0.00
2023-04-30T03:48:55.488Z,0.00
2023-04-30T03:49:56.182Z,0.00
2023-04-30T03:50:56.015Z,0.00
2023-04-30T03:51:56.312Z,0.00
2023-04-30T03:52:56.633Z,0.00
2023-04-30T03:53:56.942Z,0.00
2023-04-30T03:54:57.296Z,0.00
2023-04-30T03:55:57.490Z,0.00
2023-04-30T03:56:57.858Z,0.00
2023-04-30T03:57:58.065Z,0.00
2023-04-30T03:58:58.371Z,0.00
2023-04-30T03:59:58.723Z,0.00
2023-04-30T04:00:58.971Z,0.00
2023-04-30T04:01:59.219Z,0.00
2023-04-30T04:02:59.562Z,0.00
2023-04-30T04:03:59.782Z,0.00
2023-04-30T04:05:00.115Z,0.00
2023-04-30T04:06:00.457Z,0.00
2023-04-30T04:07:00.780Z,0.00
2023-04-30T04:08:00.968Z,0.00
2023-04-30T04:09:01.317Z,0.00
2023-04-30T04:10:01.580Z,0.00
2023-04-30T04:11:01.776Z,0.00
2023-04-30T04:12:01.986Z,5.62
2023-04-30T04:13:02.337Z,5.62
2023-04-30T04:14:02.591Z,5.62
2023-04-30T04:15:02.839Z,5.62
2023-04-30T04:16:03.132Z,5.62
2023-04-30T04:17:03.266Z,5.62
2023-04-30T04:18:03.706Z,5.62
2023-04-30T04:19:03.905Z,11.25
2023-04-30T04:20:04.154Z,11.25
2023-04-30T04:21:04.368Z,11.25
2023-04-30T04:22:04.701Z,11.25
2023-04-30T04:23:04.937Z,11.25
2023-04-30T04:24:05.156Z,16.88
2023-04-30T04:25:05.596Z,16.88
2023-04-30T04:26:05.749Z,16.88
2023-04-30T04:27:06.090Z,16.88
2023-04-30T04:28:06.423Z,22.50
2023-04-30T04:29:06.723Z,22.50
2023-04-30T04:30:07.090Z,22.50
2023-04-30T04:31:07.313Z,22.50
2023-04-30T04:32:07.755Z,28.12
2023-04-30T04:33:07.949Z,28.12
2023-04-30T04:34:08.135Z,28.12
2023-04-30T04:35:08.463Z,33.75
2023-04-30T04:36:08.799Z,33.75
2023-04-30T04:37:09.142Z,33.75
2023-04-30T04:38:09.373Z,33.75
2023-04-30T04:39:09.698Z,39.38
2023-04-30T04:40:10.043Z,39.38
2023-04-30T04:41:10.397Z,45.00
2023-04-30T04:42:10.620Z,50.62
2023-04-30T04:43:10.863Z,50.62
2023-04-30T04:44:11.073Z,56.25
2023-04-30T04:45:11.441Z,61.88
2023-04-30T04:46:13.673Z,61.88
2023-04-30T04:47:11.912Z,61.88
2023-04-30T04:48:12.163Z,61.88
2023-04-30T04:49:12.395Z,67.50
2023-04-30T04:50:12.651Z,73.12
2023-04-30T04:51:12.972Z,73.12
2023-04-30T04:52:13.204Z,73.12
2023-04-30T04:53:13.415Z,78.75
2023-04-30T04:54:13.747Z,84.38
2023-04-30T04:55:13.996Z,84.38
2023-04-30T04:56:14.346Z,90.00
2023-04-30T04:57:14.616Z,90.00
2023-04-30T04:58:14.840Z,95.62
2023-04-30T04:59:15.159Z,95.62
2023-04-30T05:00:15.529Z,95.62
2023-04-30T05:01:15.784Z,101.25
2023-04-30T05:02:16.111Z,101.25
2023-04-30T05:03:16.442Z,101.25
2023-04-30T05:04:16.659Z,106.88
2023-04-30T05:05:16.878Z,112.50
2023-04-30T05:06:17.230Z,118.12
2023-04-30T05:07:17.551Z,123.75
2023-04-30T05:08:17.856Z,129.38
2023-04-30T05:09:18.208Z,135.00
2023-04-30T05:10:18.477Z,146.25
2023-04-30T05:11:18.695Z,180.00
2023-04-30T05:12:19.015Z,230.62
2023-04-30T05:13:19.325Z,258.75
2023-04-30T05:14:19.684Z,236.25
2023-04-30T05:15:19.910Z,208.12
2023-04-30T05:16:20.279Z,213.75
2023-04-30T05:17:20.518Z,253.12
2023-04-30T05:18:20.843Z,219.38
2023-04-30T05:19:21.172Z,180.00
2023-04-30T05:20:21.545Z,135.00
2023-04-30T05:21:21.790Z,129.38
2023-04-30T05:22:21.994Z,123.75
2023-04-30T05:23:22.349Z,118.12
2023-04-30T05:24:22.555Z,106.88
2023-04-30T05:25:22.914Z,112.50
2023-04-30T05:26:23.139Z,135.00
2023-04-30T05:27:23.493Z,157.50
2023-04-30T05:28:23.703Z,168.75
2023-04-30T05:29:24.061Z,174.38
2023-04-30T05:30:24.302Z,191.25
2023-04-30T05:31:24.593Z,219.38
2023-04-30T05:32:24.795Z,315.00
2023-04-30T05:33:25.008Z,298.12
2023-04-30T05:34:25.328Z,461.25
2023-04-30T05:35:25.635Z,478.12
2023-04-30T05:36:25.824Z,562.50
2023-04-30T05:37:26.096Z,568.12
2023-04-30T05:38:26.336Z,573.75
2023-04-30T05:39:26.555Z,573.75
2023-04-30T05:40:26.930Z,613.12
2023-04-30T05:41:27.163Z,624.38
2023-04-30T05:42:27.563Z,618.75
2023-04-30T05:43:27.777Z,613.12
2023-04-30T05:44:28.008Z,663.75
2023-04-30T05:45:28.385Z,528.75
2023-04-30T05:46:28.642Z,489.38
2023-04-30T05:47:28.829Z,483.75
2023-04-30T05:48:29.197Z,534.38
2023-04-30T05:49:29.436Z,652.50
2023-04-30T05:50:29.647Z,635.62
2023-04-30T05:51:30.040Z,663.75
2023-04-30T05:52:30.248Z,691.88
2023-04-30T05:53:30.492Z,703.12
2023-04-30T05:54:30.736Z,708.75
2023-04-30T05:55:30.982Z,703.12
2023-04-30T05:56:31.199Z,703.12
2023-04-30T05:57:31.571Z,720.00
2023-04-30T05:58:31.782Z,725.62
2023-04-30T05:59:32.177Z,708.75
2023-04-30T06:00:32.408Z,731.25
2023-04-30T06:01:32.650Z,753.75
2023-04-30T06:02:32.990Z,759.38
2023-04-30T06:03:33.199Z,770.62
2023-04-30T06:04:33.428Z,776.25
2023-04-30T06:05:33.820Z,793.12
2023-04-30T06:06:34.075Z,793.12
2023-04-30T06:07:34.262Z,793.12
2023-04-30T06:08:34.532Z,804.38
2023-04-30T06:09:34.827Z,815.62
2023-04-30T06:10:35.171Z,821.25
2023-04-30T06:11:35.272Z,826.88
2023-04-30T06:12:35.522Z,832.50
2023-04-30T06:13:35.780Z,838.12
2023-04-30T06:14:36.074Z,843.75
2023-04-30T06:15:36.283Z,849.38
2023-04-30T06:16:36.559Z,860.62
2023-04-30T06:17:36.777Z,871.88
2023-04-30T06:18:37.120Z,866.25
2023-04-30T06:19:37.352Z,883.12
2023-04-30T06:20:37.568Z,883.12
2023-04-30T06:21:37.909Z,888.75
2023-04-30T06:22:38.303Z,894.38
2023-04-30T06:23:38.542Z,900.00
2023-04-30T06:24:38.829Z,894.38
2023-04-30T06:25:39.059Z,888.75
2023-04-30T06:26:39.304Z,900.00
2023-04-30T06:27:39.591Z,900.00
2023-04-30T06:28:47.335Z,900.00
2023-04-30T06:29:40.196Z,905.62
2023-04-30T06:30:40.392Z,911.25
2023-04-30T06:31:40.662Z,916.88
2023-04-30T06:32:40.908Z,911.25
2023-04-30T06:33:41.152Z,911.25
2023-04-30T06:34:41.482Z,916.88
2023-04-30T06:35:41.708Z,922.50
2023-04-30T06:36:41.970Z,922.50
2023-04-30T06:37:42.218Z,928.12
2023-04-30T06:38:42.700Z,928.12
2023-04-30T06:39:42.776Z,928.12
2023-04-30T06:40:42.990Z,922.50
2023-04-30T06:41:43.413Z,911.25
2023-04-30T06:42:45.071Z,905.62
2023-04-30T06:43:43.817Z,888.75
2023-04-30T06:44:44.094Z,911.25
2023-04-30T06:45:44.461Z,922.50
2023-04-30T06:46:44.696Z,928.12
2023-04-30T06:47:44.958Z,950.62
2023-04-30T06:48:45.201Z,967.50
2023-04-30T06:49:45.467Z,967.50
2023-04-30T06:50:45.747Z,961.88
2023-04-30T06:51:45.993Z,956.25
2023-04-30T06:52:46.240Z,939.38
2023-04-30T06:53:46.590Z,939.38
2023-04-30T06:54:46.779Z,961.88
2023-04-30T06:55:47.034Z,973.12
2023-04-30T06:56:47.298Z,978.75
2023-04-30T06:57:47.553Z,984.38
2023-04-30T06:58:47.782Z,990.00
2023-04-30T06:59:48.072Z,995.62
2023-04-30T07:00:48.291Z,995.62
2023-04-30T07:01:48.637Z,995.62
2023-04-30T07:02:48.940Z,1006.88
2023-04-30T07:03:49.352Z,1006.88
2023-04-30T07:04:49.583Z,1006.88
2023-04-30T07:05:49.635Z,1001.25
2023-04-30T07:06:49.922Z,995.62
2023-04-30T07:07:50.164Z,1001.25
2023-04-30T07:08:50.409Z,995.62
2023-04-30T07:09:51.769Z,990.00
2023-04-30T07:10:50.973Z,1006.88
2023-04-30T07:11:51.219Z,1001.25
2023-04-30T07:12:51.475Z,1012.50
2023-04-30T07:13:51.737Z,1012.50
2023-04-30T07:14:51.969Z,1006.88
2023-04-30T07:15:52.256Z,1012.50
2023-04-30T07:16:52.468Z,1006.88
2023-04-30T07:17:52.848Z,984.38
2023-04-30T07:18:53.063Z,995.62
2023-04-30T07:19:53.501Z,1023.75
2023-04-30T07:20:53.599Z,1018.12
2023-04-30T07:21:53.835Z,1018.12
2023-04-30T07:22:54.094Z,1018.12
2023-04-30T07:23:54.359Z,1018.12
2023-04-30T07:24:54.638Z,1018.12
2023-04-30T07:25:54.899Z,1023.75
2023-04-30T07:26:55.166Z,1018.12
2023-04-30T07:27:55.378Z,1006.88
2023-04-30T07:28:55.638Z,1006.88
2023-04-30T07:29:56.553Z,1018.12
2023-04-30T07:30:56.176Z,1023.75
2023-04-30T07:31:56.510Z,1018.12
2023-04-30T07:32:56.721Z,1012.50
2023-04-30T07:33:56.945Z,1012.50
2023-04-30T07:34:57.202Z,1012.50
2023-04-30T07:35:57.450Z,1018.12
2023-04-30T07:36:57.715Z,1018.12
2023-04-30T07:37:57.940Z,1012.50
2023-04-30T07:38:58.178Z,1012.50
2023-04-30T07:39:58.497Z,1023.75
2023-04-30T07:40:58.718Z,1029.38
2023-04-30T07:41:59.002Z,1029.38
2023-04-30T07:42:59.253Z,1029.38
2023-04-30T07:43:59.486Z,1035.00
2023-04-30T07:44:59.744Z,1035.00
2023-04-30T07:46:00.021Z,1035.00
2023-04-30T07:47:00.303Z,1035.00
2023-04-30T07:48:00.620Z,1035.00
2023-04-30T07:49:00.795Z,1046.25
2023-04-30T07:50:01.054Z,1046.25
2023-04-30T07:51:01.299Z,1057.50
2023-04-30T07:52:01.556Z,1063.12
2023-04-30T07:53:01.775Z,1063.12
2023-04-30T07:54:02.043Z,1057.50
2023-04-30T07:55:02.335Z,1057.50
2023-04-30T07:56:02.552Z,1051.88
2023-04-30T07:57:02.905Z,1057.50
2023-04-30T07:58:03.142Z,1051.88
2023-04-30T07:59:03.368Z,1051.88
2023-04-30T08:00:03.645Z,1063.12
2023-04-30T08:01:03.883Z,1074.38
2023-04-30T08:02:04.162Z,1068.75
2023-04-30T08:03:04.412Z,1068.75
2023-04-30T08:04:04.734Z,1057.50
2023-04-30T08:05:04.967Z,1063.12
2023-04-30T08:06:05.282Z,1063.12
2023-04-30T08:07:05.454Z,1063.12
2023-04-30T08:08:05.852Z,1057.50
2023-04-30T08:09:06.093Z,1057.50
2023-04-30T08:10:06.357Z,1057.50
2023-04-30T08:11:06.639Z,1057.50
2023-04-30T08:12:06.861Z,1057.50
2023-04-30T08:13:07.112Z,1057.50
2023-04-30T08:14:07.378Z,1057.50
2023-04-30T08:15:07.709Z,1051.88
2023-04-30T08:16:07.992Z,1046.25
2023-04-30T08:17:08.166Z,1040.62
2023-04-30T08:18:08.452Z,1040.62
2023-04-30T08:19:08.690Z,1006.88
2023-04-30T08:20:08.948Z,1006.88
2023-04-30T08:21:09.207Z,1001.25
2023-04-30T08:22:09.439Z,1023.75
2023-04-30T08:23:09.688Z,1023.75
2023-04-30T08:24:09.961Z,1018.12
2023-04-30T08:25:10.246Z,1012.50
2023-04-30T08:26:10.461Z,1001.25
2023-04-30T08:27:10.794Z,995.62
2023-04-30T08:28:11.179Z,995.62
2023-04-30T08:29:11.480Z,984.38
2023-04-30T08:30:12.188Z,984.38
2023-04-30T08:31:12.113Z,967.50
2023-04-30T08:32:12.556Z,961.88
2023-04-30T08:33:12.896Z,950.62
2023-04-30T08:34:12.973Z,922.50
2023-04-30T08:35:13.205Z,894.38
2023-04-30T08:36:13.454Z,883.12
2023-04-30T08:37:13.660Z,871.88
2023-04-30T08:38:14.023Z,860.62
2023-04-30T08:39:14.249Z,866.25
2023-04-30T08:40:14.475Z,871.88
2023-04-30T08:41:14.787Z,871.88
2023-04-30T08:42:15.160Z,888.75
2023-04-30T08:43:15.416Z,900.00
2023-04-30T08:44:15.665Z,950.62
2023-04-30T08:45:15.884Z,1063.12
2023-04-30T08:46:16.166Z,1119.38
2023-04-30T08:47:16.381Z,905.62
2023-04-30T08:48:16.791Z,427.50
2023-04-30T08:49:17.054Z,264.38
2023-04-30T08:50:17.173Z,230.62
2023-04-30T08:51:17.504Z,225.00
2023-04-30T08:52:17.828Z,213.75
2023-04-30T08:53:18.182Z,208.12
2023-04-30T08:54:18.426Z,202.50
2023-04-30T08:55:18.644Z,202.50
2023-04-30T08:56:18.975Z,202.50
2023-04-30T08:57:19.238Z,196.88
2023-04-30T08:58:19.479Z,196.88
2023-04-30T08:59:19.691Z,191.25
2023-04-30T09:00:19.984Z,191.25
2023-04-30T09:01:20.363Z,191.25
2023-04-30T09:02:20.640Z,191.25
2023-04-30T09:03:20.881Z,185.62
2023-04-30T09:04:21.079Z,185.62
2023-04-30T09:05:21.286Z,185.62
2023-04-30T09:06:21.642Z,180.00
2023-04-30T09:07:21.923Z,180.00
2023-04-30T09:08:22.244Z,180.00
2023-04-30T09:09:22.610Z,180.00
2023-04-30T09:10:22.828Z,174.38
2023-04-30T09:11:23.114Z,174.38
2023-04-30T09:12:23.421Z,174.38
2023-04-30T09:13:23.754Z,174.38
2023-04-30T09:14:24.059Z,168.75
2023-04-30T09:15:24.353Z,168.75
2023-04-30T09:16:24.972Z,168.75
2023-04-30T09:17:24.925Z,168.75
2023-04-30T09:18:25.246Z,168.75
2023-04-30T09:19:25.593Z,168.75
2023-04-30T09:20:25.904Z,163.12
2023-04-30T09:21:26.142Z,163.12
2023-04-30T09:22:26.482Z,163.12
2023-04-30T09:23:26.788Z,163.12
2023-04-30T09:24:27.098Z,163.12
2023-04-30T09:25:27.403Z,163.12
2023-04-30T09:26:27.777Z,163.12
2023-04-30T09:27:27.964Z,163.12
2023-04-30T09:28:28.267Z,163.12
2023-04-30T09:29:28.613Z,163.12
2023-04-30T09:30:28.924Z,163.12
2023-04-30T09:31:29.311Z,163.12
2023-04-30T09:32:29.623Z,163.12
2023-04-30T09:33:29.902Z,163.12
2023-04-30T09:34:30.205Z,163.12
2023-04-30T09:35:30.493Z,163.12
2023-04-30T09:36:30.793Z,163.12
2023-04-30T09:37:31.087Z,168.75
2023-04-30T09:38:31.423Z,168.75
2023-04-30T09:39:31.708Z,168.75
2023-04-30T09:40:32.038Z,163.12
2023-04-30T09:41:32.347Z,163.12
2023-04-30T09:42:32.661Z,168.75
2023-04-30T09:43:33.060Z,163.12
2023-04-30T09:44:33.251Z,163.12
2023-04-30T09:45:33.602Z,168.75
2023-04-30T09:46:33.944Z,163.12
2023-04-30T09:47:34.284Z,163.12
2023-04-30T09:48:34.538Z,168.75
2023-04-30T09:49:34.909Z,163.12
2023-04-30T09:50:35.084Z,163.12
2023-04-30T09:51:35.403Z,168.75
2023-04-30T09:52:35.718Z,168.75
2023-04-30T09:53:36.015Z,168.75
2023-04-30T09:54:36.349Z,168.75
2023-04-30T09:55:36.679Z,168.75
2023-04-30T09:56:37.005Z,168.75
2023-04-30T09:57:37.281Z,168.75
2023-04-30T09:58:37.607Z,163.12
2023-04-30T09:59:38.012Z,168.75
2023-04-30T10:00:38.324Z,168.75
2023-04-30T10:01:40.911Z,168.75
2023-04-30T10:02:38.926Z,168.75
2023-04-30T10:03:39.164Z,174.38
2023-04-30T10:04:39.500Z,180.00
2023-04-30T10:05:39.828Z,185.62
2023-04-30T10:06:40.200Z,185.62
2023-04-30T10:07:40.472Z,185.62
2023-04-30T10:08:40.755Z,191.25
2023-04-30T10:09:41.038Z,185.62
2023-04-30T10:10:41.368Z,191.25
2023-04-30T10:11:41.690Z,202.50
2023-04-30T10:12:42.038Z,208.12
2023-04-30T10:13:42.335Z,208.12
2023-04-30T10:14:42.682Z,185.62
2023-04-30T10:15:42.966Z,180.00
2023-04-30T10:16:43.277Z,196.88
2023-04-30T10:17:43.609Z,196.88
2023-04-30T10:18:43.909Z,219.38
2023-04-30T10:19:45.994Z,225.00
2023-04-30T10:20:44.526Z,230.62
2023-04-30T10:21:44.840Z,225.00
2023-04-30T10:22:45.116Z,219.38
2023-04-30T10:23:45.440Z,213.75
2023-04-30T10:24:45.748Z,202.50
2023-04-30T10:25:46.099Z,196.88
2023-04-30T10:26:46.386Z,202.50
2023-04-30T10:27:46.722Z,202.50
2023-04-30T10:28:47.023Z,213.75
2023-04-30T10:29:47.315Z,208.12
2023-04-30T10:30:47.668Z,196.88
2023-04-30T10:31:47.966Z,191.25
2023-04-30T10:32:48.290Z,191.25
2023-04-30T10:33:48.583Z,191.25
2023-04-30T10:34:48.971Z,196.88
2023-04-30T10:35:49.237Z,202.50
2023-04-30T10:36:49.590Z,208.12
2023-04-30T10:37:49.889Z,219.38
2023-04-30T10:38:50.215Z,230.62
2023-04-30T10:39:50.512Z,230.62
2023-04-30T10:40:50.817Z,236.25
2023-04-30T10:41:51.161Z,236.25
2023-04-30T10:42:51.478Z,236.25
2023-04-30T10:43:51.811Z,236.25
2023-04-30T10:44:52.117Z,247.50
2023-04-30T10:45:52.491Z,247.50
2023-04-30T10:46:52.668Z,241.88
2023-04-30T10:47:53.008Z,241.88
2023-04-30T10:48:53.270Z,236.25
2023-04-30T10:49:53.815Z,230.62
2023-04-30T10:50:53.917Z,230.62
2023-04-30T10:51:54.248Z,241.88
2023-04-30T10:52:54.541Z,241.88
2023-04-30T10:53:54.876Z,241.88
2023-04-30T10:54:55.223Z,236.25
2023-04-30T10:55:55.427Z,236.25
2023-04-30T10:56:55.740Z,241.88
2023-04-30T10:57:56.033Z,236.25
2023-04-30T10:58:56.330Z,230.62
2023-04-30T10:59:56.947Z,230.62
2023-04-30T11:00:57.017Z,247.50
2023-04-30T11:01:57.423Z,241.88
2023-04-30T11:02:57.554Z,247.50
2023-04-30T11:03:57.849Z,230.62
2023-04-30T11:04:58.222Z,213.75
2023-04-30T11:05:58.514Z,213.75
2023-04-30T11:06:58.781Z,241.88
2023-04-30T11:07:59.116Z,236.25
2023-04-30T11:08:59.431Z,208.12
2023-04-30T11:09:59.763Z,202.50
2023-04-30T11:11:00.120Z,185.62
2023-04-30T11:12:00.394Z,191.25
2023-04-30T11:13:01.695Z,185.62
2023-04-30T11:14:01.298Z,191.25
2023-04-30T11:15:01.365Z,191.25
2023-04-30T11:16:01.756Z,196.88
2023-04-30T11:17:02.017Z,230.62
2023-04-30T11:18:02.328Z,225.00
2023-04-30T11:19:02.643Z,219.38
2023-04-30T11:20:02.956Z,241.88
2023-04-30T11:21:03.267Z,236.25
2023-04-30T11:22:03.571Z,236.25
2023-04-30T11:23:03.880Z,236.25
2023-04-30T11:24:04.202Z,247.50
2023-04-30T11:25:04.519Z,236.25
2023-04-30T11:26:04.808Z,230.62
2023-04-30T11:27:05.094Z,225.00
2023-04-30T11:28:05.404Z,225.00
2023-04-30T11:29:05.765Z,219.38
2023-04-30T11:30:06.043Z,213.75
2023-04-30T11:31:06.439Z,219.38
2023-04-30T11:32:06.584Z,208.12
2023-04-30T11:33:06.921Z,230.62
2023-04-30T11:34:07.249Z,236.25
2023-04-30T11:35:07.542Z,236.25
2023-04-30T11:36:07.824Z,219.38
2023-04-30T11:37:08.128Z,213.75
2023-04-30T11:38:08.456Z,208.12
2023-04-30T11:39:08.791Z,219.38
2023-04-30T11:40:09.119Z,225.00
2023-04-30T11:41:09.421Z,225.00
2023-04-30T11:42:09.718Z,196.88
2023-04-30T11:43:10.033Z,191.25
2023-04-30T11:44:10.361Z,185.62
2023-04-30T11:45:10.648Z,213.75
2023-04-30T11:46:11.202Z,180.00
2023-04-30T11:47:11.273Z,180.00
2023-04-30T11:48:11.557Z,180.00
2023-04-30T11:49:11.898Z,208.12
2023-04-30T11:50:12.270Z,219.38
2023-04-30T11:51:12.472Z,219.38
2023-04-30T11:52:12.778Z,213.75
2023-04-30T11:53:13.118Z,202.50
2023-04-30T11:54:13.427Z,196.88
2023-04-30T11:55:13.758Z,185.62
2023-04-30T11:56:14.159Z,163.12
2023-04-30T11:57:14.422Z,168.75
2023-04-30T11:58:14.725Z,191.25
2023-04-30T11:59:15.046Z,185.62
2023-04-30T12:00:15.364Z,168.75
2023-04-30T12:01:15.746Z,191.25
2023-04-30T12:02:16.070Z,191.25
2023-04-30T12:03:16.445Z,196.88
2023-04-30T12:04:16.770Z,196.88
2023-04-30T12:05:16.939Z,196.88
2023-04-30T12:06:17.230Z,202.50
2023-04-30T12:07:17.544Z,185.62
2023-04-30T12:08:17.855Z,180.00
2023-04-30T12:09:18.197Z,180.00
2023-04-30T12:10:18.495Z,202.50
2023-04-30T12:11:18.776Z,202.50
2023-04-30T12:12:19.182Z,196.88
2023-04-30T12:13:19.412Z,196.88
2023-04-30T12:14:19.739Z,196.88
2023-04-30T12:15:20.159Z,196.88
2023-04-30T12:16:20.399Z,196.88
2023-04-30T12:17:20.728Z,196.88
2023-04-30T12:18:21.121Z,168.75
2023-04-30T12:19:21.396Z,180.00
2023-04-30T12:20:21.677Z,219.38
2023-04-30T12:21:21.997Z,225.00
2023-04-30T12:22:22.309Z,230.62
2023-04-30T12:23:22.650Z,236.25
2023-04-30T12:24:22.955Z,230.62
2023-04-30T12:25:23.343Z,236.25
2023-04-30T12:26:23.596Z,230.62
2023-04-30T12:27:23.930Z,241.88
2023-04-30T12:28:24.244Z,236.25
2023-04-30T12:29:24.601Z,236.25
2023-04-30T12:30:24.923Z,230.62
2023-04-30T12:31:25.250Z,230.62
2023-04-30T12:32:25.663Z,213.75
2023-04-30T12:33:25.888Z,236.25
2023-04-30T12:34:26.214Z,230.62
2023-04-30T12:35:26.576Z,230.62
2023-04-30T12:36:26.863Z,225.00
2023-04-30T12:37:27.187Z,241.88
2023-04-30T12:38:27.552Z,247.50
2023-04-30T12:39:27.956Z,225.00
2023-04-30T12:40:28.195Z,213.75
2023-04-30T12:41:28.443Z,208.12
2023-04-30T12:42:28.795Z,202.50
2023-04-30T12:43:29.002Z,208.12
2023-04-30T12:44:29.351Z,219.38
2023-04-30T12:45:29.665Z,241.88
2023-04-30T12:46:30.106Z,236.25
2023-04-30T12:47:30.253Z,236.25